Terminal Aerodrome Forecast
Issued by NWS

Home | Current Version | Previous Version | Text Only | Print | Product List | Glossary Off
Versions: 1 2 3 4 5 6 7 8 9 10 11 12 13 14

000
FTUS43 KGRB 200500
TAFAUW
TAF
KAUW 200520Z 2006/2106 16010KT P6SM SCT035 OVC080 WS012/18040KT
      TEMPO 2006/2009 -RA BKN035
     FM200900 19007KT 5SM BR SCT025 OVC040 WS012/21040KT
      TEMPO 2009/2013 -RA BKN025
     FM201500 22006KT 6SM HZ BKN035 OVC060
     FM202200 VRB03KT 6SM BR SCT025 OVC050 PROB30 2022/2104 -SHRA
      BKN025=

USA.gov is the U.S. government's official web portal to all federal, state and local government web resources and services.